Time;durP1;ratioP1;P1;durP2;ratioP2;P2;SDS_P1;SDS_P2;PMS_P1;PMS_P2;Temp;Humidity;BMP_temperature;BMP_pressure;BME280_temperature;BME280_humidity;BME280_pressure;Samples;Min_cycle;Max_cycle;Signal;HPM_P1;HPM_P2
2022/07/26 00:00:51;;;;;;;;;;;;;;;19.42;56.53;101229.78;5028983;28;19992;-91
2022/07/26 00:03:16;;;;;;;;;;;;;;;19.41;56.59;101233.44;5023417;28;19982;-90
2022/07/26 00:05:42;;;;;;;;;;;;;;;19.41;56.33;101234.28;5004315;28;19921;-90
2022/07/26 00:08:10;;;;;;;;;;;;;;;19.39;56.84;101230.84;5025296;28;19921;-90
2022/07/26 00:10:41;;;;;;;;;;;;;;;19.46;56.49;101242.84;5009836;28;19994;-89
2022/07/26 00:13:06;;;;;;;;;;;;;;;19.41;57.49;101238.78;5026451;28;19925;-89
2022/07/26 00:15:31;;;;;;;;;;;;;;;19.26;58.63;101236.22;5008615;28;19917;-90
2022/07/26 00:17:57;;;;;;;;;;;;;;;19.28;56.53;101236.97;5026297;28;19917;-89
2022/07/26 00:20:22;;;;;;;;;;;;;;;19.21;61.24;101242.84;5028192;28;20433;-91
2022/07/26 00:22:47;;;;;;;;;;;;;;;19.25;57.74;101239.00;5025408;28;20000;-90
2022/07/26 00:25:12;;;;;;;;;;;;;;;19.31;60.84;101233.22;5006295;28;19920;-91
2022/07/26 00:27:37;;;;;;;;;;;;;;;19.23;59.98;101241.78;5010049;28;19928;-90
2022/07/26 00:30:04;;;;;;;;;;;;;;;19.17;57.12;101236.88;5029419;28;19925;-88
2022/07/26 00:32:29;;;;;;;;;;;;;;;19.16;58.53;101240.50;5024486;28;19921;-90
2022/07/26 00:34:54;;;;;;;;;;;;;;;19.14;57.47;101238.91;5027419;28;19921;-89
2022/07/26 00:37:20;;;;;;;;;;;;;;;19.10;58.54;101241.78;5023397;28;19921;-90
2022/07/26 00:39:45;;;;;;;;;;;;;;;19.20;57.91;101247.34;5026408;28;20024;-90
2022/07/26 00:42:10;;;;;;;;;;;;;;;19.26;58.44;101251.47;5023799;28;19932;-90
2022/07/26 00:44:37;;;;;;;;;;;;;;;19.30;57.37;101243.06;5010329;28;19925;-90
2022/07/26 00:47:02;;;;;;;;;;;;;;;19.35;57.63;101242.75;5027703;28;20447;-89
2022/07/26 00:49:27;;;;;;;;;;;;;;;19.41;56.54;101244.16;5027120;28;20059;-90
2022/07/26 00:51:52;;;;;;;;;;;;;;;19.32;57.97;101246.50;5009937;28;19917;-90
2022/07/26 00:54:18;;;;;;;;;;;;;;;19.37;57.40;101243.50;5026627;28;20238;-91
2022/07/26 00:56:43;;;;;;;;;;;;;;;19.37;58.05;101247.03;5026925;28;19963;-89
2022/07/26 00:59:09;;;;;;;;;;;;;;;19.32;57.77;101248.34;5026783;28;20169;-90
2022/07/26 01:01:34;;;;;;;;;;;;;;;19.33;57.35;101237.50;5025993;28;19932;-90
2022/07/26 01:03:59;;;;;;;;;;;;;;;19.32;59.47;101238.47;5007240;28;19921;-90
2022/07/26 01:06:24;;;;;;;;;;;;;;;19.34;59.81;101238.34;5027167;28;19972;-90
2022/07/26 01:08:50;;;;;;;;;;;;;;;19.30;58.79;101237.69;5024887;28;19925;-91
2022/07/26 01:11:15;;;;;;;;;;;;;;;19.29;58.83;101241.34;5009143;28;19917;-91
2022/07/26 01:13:49;;;;;;;;;;;;;;;19.32;58.24;101233.09;5029209;28;19913;-90
2022/07/26 01:16:15;;;;;;;;;;;;;;;19.34;58.68;101241.88;5022926;28;20284;-89
2022/07/26 01:18:40;;;;;;;;;;;;;;;19.37;59.05;101238.16;5025713;28;20015;-91
2022/07/26 01:21:07;;;;;;;;;;;;;;;19.38;57.53;101239.84;5022332;28;19926;-90
2022/07/26 01:23:32;;;;;;;;;;;;;;;19.38;57.58;101237.16;5008227;28;20464;-89
2022/07/26 01:25:58;;;;;;;;;;;;;;;19.38;59.05;101238.03;5027362;28;20279;-91
2022/07/26 01:28:23;;;;;;;;;;;;;;;19.40;60.94;101231.69;5025816;28;20023;-90
2022/07/26 01:30:48;;;;;;;;;;;;;;;19.37;58.60;101228.28;5002559;28;20444;-89
2022/07/26 01:33:14;;;;;;;;;;;;;;;19.42;56.92;101219.06;5024082;28;19921;-90
2022/07/26 01:35:39;;;;;;;;;;;;;;;19.44;57.85;101219.78;5009000;28;20023;-90
2022/07/26 01:38:04;;;;;;;;;;;;;;;19.48;56.78;101219.44;5023829;28;19925;-89
2022/07/26 01:40:29;;;;;;;;;;;;;;;19.51;58.88;101227.28;5025763;28;19925;-90
2022/07/26 01:42:55;;;;;;;;;;;;;;;19.48;57.63;101226.66;5022619;28;20432;-88
2022/07/26 01:45:20;;;;;;;;;;;;;;;19.47;58.05;101233.84;5025597;28;19929;-90
2022/07/26 01:47:48;;;;;;;;;;;;;;;19.44;58.38;101234.03;5024996;28;19928;-88
2022/07/26 01:50:14;;;;;;;;;;;;;;;19.41;58.50;101236.97;5027841;28;19986;-90
2022/07/26 01:52:39;;;;;;;;;;;;;;;19.47;58.11;101238.34;5025831;28;20376;-90
2022/07/26 01:55:05;;;;;;;;;;;;;;;19.51;57.37;101237.16;5028471;28;20360;-89
2022/07/26 01:57:30;;;;;;;;;;;;;;;19.47;58.91;101238.34;5024780;28;19972;-90
2022/07/26 01:59:55;;;;;;;;;;;;;;;19.50;58.22;101246.19;5022116;28;20304;-89
2022/07/26 02:02:20;;;;;;;;;;;;;;;19.49;57.32;101239.09;5024006;28;20365;-91
2022/07/26 02:04:57;;;;;;;;;;;;;;;19.46;58.86;101237.50;5003305;28;20369;-91
2022/07/26 02:07:26;;;;;;;;;;;;;;;19.46;58.55;101244.69;5023027;28;19921;-91
2022/07/26 02:09:52;;;;;;;;;;;;;;;19.43;57.23;101240.38;5022778;28;19925;-90
2022/07/26 02:12:17;;;;;;;;;;;;;;;19.43;58.76;101240.38;5025767;28;19932;-89
2022/07/26 02:14:42;;;;;;;;;;;;;;;19.43;59.30;101245.75;5007847;28;20032;-89
2022/07/26 02:17:07;;;;;;;;;;;;;;;19.44;59.65;101244.78;5022128;28;19935;-90
2022/07/26 02:19:33;;;;;;;;;;;;;;;19.47;59.13;101243.72;5024994;28;19924;-89
2022/07/26 02:21:58;;;;;;;;;;;;;;;19.46;59.35;101242.84;5023319;28;19917;-90
2022/07/26 02:24:27;;;;;;;;;;;;;;;19.49;58.95;101247.13;5026372;28;20385;-90
2022/07/26 02:26:52;;;;;;;;;;;;;;;19.50;59.83;101241.69;5027434;28;19921;-90
2022/07/26 02:29:18;;;;;;;;;;;;;;;19.53;59.26;101243.25;5006797;28;19978;-91
2022/07/26 02:31:43;;;;;;;;;;;;;;;19.51;59.25;101245.22;5018687;28;20024;-90
2022/07/26 02:34:08;;;;;;;;;;;;;;;19.46;58.59;101250.91;5024427;28;19917;-90
2022/07/26 02:36:33;;;;;;;;;;;;;;;19.45;60.65;101248.34;5006903;28;20354;-89
2022/07/26 02:38:58;;;;;;;;;;;;;;;19.43;59.58;101245.75;5025676;28;19978;-88
2022/07/26 02:41:23;;;;;;;;;;;;;;;19.44;59.83;101251.97;5023350;28;19924;-90
2022/07/26 02:43:49;;;;;;;;;;;;;;;19.40;59.85;101253.13;5009058;28;20652;-90
2022/07/26 02:46:14;;;;;;;;;;;;;;;19.36;61.90;101257.88;5028852;28;20368;-90
2022/07/26 02:48:39;;;;;;;;;;;;;;;19.27;61.46;101261.22;5021173;28;19921;-89
2022/07/26 02:51:04;;;;;;;;;;;;;;;19.20;60.89;101260.75;5027324;28;20364;-89
2022/07/26 02:53:29;;;;;;;;;;;;;;;19.22;61.84;101266.03;5022074;28;19971;-90
2022/07/26 02:55:55;;;;;;;;;;;;;;;19.26;60.05;101268.41;5028482;28;20353;-90
2022/07/26 02:58:20;;;;;;;;;;;;;;;19.28;59.58;101265.59;5027152;28;19940;-90
2022/07/26 03:00:46;;;;;;;;;;;;;;;19.25;61.61;101266.66;5027414;28;19928;-91
2022/07/26 03:03:12;;;;;;;;;;;;;;;19.20;59.84;101263.44;5026300;28;19975;-90
2022/07/26 03:05:38;;;;;;;;;;;;;;;19.18;61.15;101268.06;5029475;28;19921;-89
2022/07/26 03:08:03;;;;;;;;;;;;;;;19.18;59.78;101269.88;5026896;28;20016;-90
2022/07/26 03:10:28;;;;;;;;;;;;;;;19.16;61.24;101269.97;5021596;28;20283;-91
2022/07/26 03:12:54;;;;;;;;;;;;;;;19.15;63.29;101268.25;5027115;28;19974;-90
2022/07/26 03:15:19;;;;;;;;;;;;;;;19.13;63.41;101277.41;5026679;28;20357;-90
2022/07/26 03:17:44;;;;;;;;;;;;;;;19.09;61.87;101274.91;5024623;28;19924;-91
2022/07/26 03:20:10;;;;;;;;;;;;;;;19.11;64.87;101281.00;5023321;28;19917;-89
2022/07/26 03:22:35;;;;;;;;;;;;;;;19.03;63.56;101279.84;5009567;28;20033;-89
2022/07/26 03:25:00;;;;;;;;;;;;;;;19.02;64.06;101292.38;5007336;28;19932;-90
2022/07/26 03:27:25;;;;;;;;;;;;;;;19.01;63.15;101285.28;5029903;28;19929;-90
2022/07/26 03:29:51;;;;;;;;;;;;;;;19.06;61.40;101293.03;5027333;28;19927;-89
2022/07/26 03:32:16;;;;;;;;;;;;;;;19.09;62.64;101292.81;5010104;28;20023;-90
2022/07/26 03:34:41;;;;;;;;;;;;;;;19.11;64.91;101289.06;5008568;28;19922;-90
2022/07/26 03:37:06;;;;;;;;;;;;;;;19.14;63.53;101296.03;5008856;28;19932;-90
2022/07/26 03:39:31;;;;;;;;;;;;;;;19.15;61.19;101303.13;5029849;28;20380;-89
2022/07/26 03:41:57;;;;;;;;;;;;;;;19.11;62.31;101302.47;5025196;28;20245;-89
2022/07/26 03:44:22;;;;;;;;;;;;;;;19.10;63.32;101308.78;5026733;28;19917;-88
2022/07/26 03:46:47;;;;;;;;;;;;;;;19.12;62.99;101311.38;5013850;28;20265;-89
2022/07/26 03:49:12;;;;;;;;;;;;;;;19.08;62.77;101305.38;5028246;28;20263;-92
2022/07/26 03:51:37;;;;;;;;;;;;;;;19.09;63.20;101303.53;5027326;28;19921;-91
2022/07/26 03:54:02;;;;;;;;;;;;;;;19.11;62.77;101302.47;5025512;28;19931;-91
2022/07/26 03:56:30;;;;;;;;;;;;;;;19.11;63.82;101301.59;5010306;28;19917;-91
2022/07/26 03:58:56;;;;;;;;;;;;;;;19.08;63.67;101313.41;5028863;28;20559;-90
2022/07/26 04:01:21;;;;;;;;;;;;;;;19.07;63.82;101305.44;5027493;28;19929;-91
2022/07/26 04:03:47;;;;;;;;;;;;;;;19.08;63.06;101309.88;5026261;28;20343;-90
2022/07/26 04:06:12;;;;;;;;;;;;;;;19.08;63.64;101313.41;5026242;28;19917;-91
2022/07/26 04:08:37;;;;;;;;;;;;;;;19.07;65.05;101311.69;5008843;28;19929;-91
2022/07/26 04:11:02;;;;;;;;;;;;;;;19.06;64.34;101315.31;5022528;28;20011;-90
2022/07/26 04:13:28;;;;;;;;;;;;;;;19.02;64.13;101316.47;5022516;28;19917;-89
2022/07/26 04:15:53;;;;;;;;;;;;;;;19.03;63.72;101320.06;5007000;28;19925;-90
2022/07/26 04:18:18;;;;;;;;;;;;;;;19.05;63.38;101315.44;5007523;28;19924;-91
2022/07/26 04:20:43;;;;;;;;;;;;;;;19.08;62.59;101308.06;5007844;28;20016;-91
2022/07/26 04:23:09;;;;;;;;;;;;;;;19.09;63.14;101314.25;5028509;28;19927;-91
2022/07/26 04:25:34;;;;;;;;;;;;;;;19.11;65.56;101321.22;5026436;28;19960;-90
2022/07/26 04:28:00;;;;;;;;;;;;;;;19.10;63.64;101324.00;5028792;28;20356;-90
2022/07/26 04:30:25;;;;;;;;;;;;;;;19.14;64.53;101324.66;5024765;28;19961;-91
2022/07/26 04:32:51;;;;;;;;;;;;;;;19.16;64.93;101336.13;5024538;28;20004;-91
2022/07/26 04:35:16;;;;;;;;;;;;;;;19.17;63.62;101335.19;5009825;28;20265;-91
2022/07/26 04:37:42;;;;;;;;;;;;;;;19.19;63.24;101333.25;5006996;28;20362;-91
2022/07/26 04:40:08;;;;;;;;;;;;;;;19.23;62.45;101337.44;5010569;28;19917;-91
2022/07/26 04:42:34;;;;;;;;;;;;;;;19.28;62.96;101327.25;5028008;28;19925;-90
2022/07/26 04:44:59;;;;;;;;;;;;;;;19.32;62.40;101334.13;5026354;28;19921;-91
2022/07/26 04:47:24;;;;;;;;;;;;;;;19.35;63.99;101329.44;5026125;28;19917;-91
2022/07/26 04:49:49;;;;;;;;;;;;;;;19.38;63.96;101339.91;5008744;28;19917;-90
2022/07/26 04:52:14;;;;;;;;;;;;;;;19.31;63.53;101333.28;5025197;28;19956;-91
2022/07/26 04:54:40;;;;;;;;;;;;;;;19.30;63.07;101334.22;5008815;28;19921;-91
2022/07/26 04:57:05;;;;;;;;;;;;;;;19.31;64.00;101333.28;5022811;28;20245;-89
2022/07/26 04:59:30;;;;;;;;;;;;;;;19.37;63.62;101340.88;5028014;28;20308;-91
2022/07/26 05:01:55;;;;;;;;;;;;;;;19.38;62.21;101345.28;5008431;28;19975;-91
2022/07/26 05:04:20;;;;;;;;;;;;;;;19.32;63.29;101348.41;5024696;28;19913;-90
2022/07/26 05:06:46;;;;;;;;;;;;;;;19.32;63.01;101353.75;5022212;28;20273;-91
2022/07/26 05:09:11;;;;;;;;;;;;;;;19.35;63.64;101350.00;5021563;28;20169;-91
2022/07/26 05:11:36;;;;;;;;;;;;;;;19.32;63.60;101355.59;5008399;28;19928;-91
2022/07/26 05:14:01;;;;;;;;;;;;;;;19.30;63.73;101347.63;5009481;28;19939;-90
2022/07/26 05:16:26;;;;;;;;;;;;;;;19.33;63.00;101354.63;5026817;28;19986;-92
2022/07/26 05:18:52;;;;;;;;;;;;;;;19.38;62.26;101353.31;5006600;28;19917;-90
2022/07/26 05:21:17;;;;;;;;;;;;;;;19.42;62.82;101358.50;5027527;28;19921;-92
2022/07/26 05:23:43;;;;;;;;;;;;;;;19.41;63.24;101362.13;5026195;28;20126;-90
2022/07/26 05:26:09;;;;;;;;;;;;;;;19.41;64.34;101359.47;5024452;28;19970;-91
2022/07/26 05:28:36;;;;;;;;;;;;;;;19.35;64.11;101369.66;5024536;28;20416;-93
2022/07/26 05:31:02;;;;;;;;;;;;;;;19.37;66.00;101367.69;5028345;28;20001;-90
2022/07/26 05:33:27;;;;;;;;;;;;;;;19.34;63.17;101373.25;5037370;28;19961;-90
2022/07/26 05:35:52;;;;;;;;;;;;;;;19.36;64.10;101376.72;5037193;28;20016;-90
2022/07/26 05:38:17;;;;;;;;;;;;;;;19.41;64.26;101373.72;5020636;28;20012;-89
2022/07/26 05:40:42;;;;;;;;;;;;;;;19.48;63.05;101376.81;5009769;28;20288;-89
2022/07/26 05:43:08;;;;;;;;;;;;;;;19.54;63.25;101373.75;5007549;28;19928;-91
2022/07/26 05:45:33;;;;;;;;;;;;;;;19.57;63.33;101384.25;5023851;28;19975;-91
2022/07/26 05:47:58;;;;;;;;;;;;;;;19.57;65.23;101373.50;4999448;28;20012;-91
2022/07/26 05:50:23;;;;;;;;;;;;;;;19.55;65.36;101392.41;5023805;28;19921;-90
2022/07/26 05:52:48;;;;;;;;;;;;;;;19.62;63.91;101392.84;5024918;28;19979;-90
2022/07/26 05:55:14;;;;;;;;;;;;;;;19.64;63.91;101380.22;5022270;28;19928;-90
2022/07/26 05:57:40;;;;;;;;;;;;;;;19.57;64.69;101389.59;5027656;28;19921;-90
2022/07/26 06:00:06;;;;;;;;;;;;;;;19.67;64.05;101396.06;5024173;28;20334;-90
2022/07/26 06:02:31;;;;;;;;;;;;;;;19.76;63.59;101399.94;5019263;28;19930;-90
2022/07/26 06:04:57;;;;;;;;;;;;;;;19.79;63.29;101400.59;5022925;28;19917;-91
2022/07/26 06:07:22;;;;;;;;;;;;;;;19.83;63.32;101395.88;5020831;28;19917;-91
2022/07/26 06:09:47;;;;;;;;;;;;;;;19.92;62.64;101395.22;5024881;28;20660;-91
2022/07/26 06:12:13;;;;;;;;;;;;;;;19.89;65.43;101398.13;5009664;28;19925;-92
2022/07/26 06:14:38;;;;;;;;;;;;;;;19.90;64.08;101401.66;5019748;28;20332;-92
2022/07/26 06:17:03;;;;;;;;;;;;;;;19.93;63.84;101388.03;5005800;28;19917;-90
2022/07/26 06:19:29;;;;;;;;;;;;;;;20.00;63.47;101398.22;5010436;28;20323;-90
2022/07/26 06:21:54;;;;;;;;;;;;;;;20.04;62.47;101404.22;5021242;28;19917;-90
2022/07/26 06:24:20;;;;;;;;;;;;;;;20.08;63.20;101405.72;5033074;28;20142;-90
2022/07/26 06:26:45;;;;;;;;;;;;;;;20.13;62.30;101409.78;5008795;28;19921;-89
2022/07/26 06:29:10;;;;;;;;;;;;;;;20.20;62.32;101414.75;5012587;28;19925;-91
2022/07/26 06:31:36;;;;;;;;;;;;;;;20.22;63.24;101405.59;5027431;28;19917;-92
2022/07/26 06:34:01;;;;;;;;;;;;;;;20.27;62.55;101408.81;5030360;28;20291;-91
2022/07/26 06:36:26;;;;;;;;;;;;;;;20.36;62.31;101405.47;5031657;28;20356;-90
2022/07/26 06:38:53;;;;;;;;;;;;;;;20.39;62.33;101407.09;5030778;28;19921;-89
2022/07/26 06:41:18;;;;;;;;;;;;;;;20.49;62.34;101415.38;5030698;28;20372;-88
2022/07/26 06:43:44;;;;;;;;;;;;;;;20.52;61.81;101407.09;5031709;28;19979;-89
2022/07/26 06:46:09;;;;;;;;;;;;;;;20.51;61.79;101408.03;5030371;28;19921;-89
2022/07/26 06:48:34;;;;;;;;;;;;;;;20.61;61.47;101406.38;5021806;28;19922;-89
2022/07/26 06:50:59;;;;;;;;;;;;;;;20.73;61.11;101418.09;5031511;28;19971;-90
2022/07/26 06:53:25;;;;;;;;;;;;;;;20.86;61.15;101419.75;5030123;28;19921;-89
2022/07/26 06:55:50;;;;;;;;;;;;;;;20.93;60.44;101424.66;5013494;28;20119;-90
2022/07/26 06:58:15;;;;;;;;;;;;;;;21.14;60.49;101423.06;5031025;28;19949;-89
2022/07/26 07:00:40;;;;;;;;;;;;;;;21.29;60.72;101427.28;5031940;28;20310;-90
2022/07/26 07:03:27;;;;;;;;;;;;;;;21.36;59.31;101441.16;5003470;28;20426;-90
2022/07/26 07:05:52;;;;;;;;;;;;;;;21.46;59.23;101441.31;5030866;28;19918;-89
2022/07/26 07:08:20;;;;;;;;;;;;;;;21.54;58.97;101437.06;5031265;28;20000;-90
2022/07/26 07:10:45;;;;;;;;;;;;;;;21.68;59.08;101437.81;5031714;28;19925;-90
2022/07/26 07:13:10;;;;;;;;;;;;;;;21.74;58.42;101445.44;5009049;28;20274;-89
2022/07/26 07:15:35;;;;;;;;;;;;;;;21.83;58.31;101440.19;5025588;28;19956;-91
2022/07/26 07:18:01;;;;;;;;;;;;;;;21.85;57.75;101435.53;5006122;28;19921;-90
2022/07/26 07:20:27;;;;;;;;;;;;;;;21.82;57.32;101443.88;5032283;28;19913;-90
2022/07/26 07:22:52;;;;;;;;;;;;;;;21.70;57.20;101442.13;5026176;28;20380;-90
2022/07/26 07:25:17;;;;;;;;;;;;;;;21.65;57.24;101444.31;5030788;28;19917;-91
2022/07/26 07:27:43;;;;;;;;;;;;;;;21.72;57.46;101447.38;5030780;28;20599;-90
2022/07/26 07:30:09;;;;;;;;;;;;;;;21.78;57.08;101449.59;5015345;28;20002;-91
2022/07/26 07:32:35;;;;;;;;;;;;;;;21.74;56.37;101446.28;5032693;28;19921;-90
2022/07/26 07:35:00;;;;;;;;;;;;;;;21.68;56.75;101451.28;5029907;28;19917;-90
2022/07/26 07:37:25;;;;;;;;;;;;;;;21.88;56.69;101461.38;5007287;28;19921;-89
2022/07/26 07:39:50;;;;;;;;;;;;;;;22.17;56.02;101461.81;5026090;28;20470;-90
2022/07/26 07:42:15;;;;;;;;;;;;;;;22.48;55.38;101449.44;5029512;28;19921;-90
2022/07/26 07:44:41;;;;;;;;;;;;;;;22.88;53.84;101446.16;5030569;28;19949;-88
2022/07/26 07:47:07;;;;;;;;;;;;;;;23.11;53.78;101453.25;5028872;28;19928;-90
2022/07/26 07:49:32;;;;;;;;;;;;;;;23.06;53.86;101458.16;5023637;28;19925;-90
2022/07/26 07:51:58;;;;;;;;;;;;;;;22.92;53.63;101458.44;5028033;28;20412;-91
2022/07/26 07:54:23;;;;;;;;;;;;;;;22.86;53.90;101457.09;5029103;28;19932;-91
2022/07/26 07:56:49;;;;;;;;;;;;;;;23.00;53.97;101453.28;5031337;28;19917;-90
2022/07/26 07:59:14;;;;;;;;;;;;;;;23.21;53.79;101458.72;5032371;28;19913;-92
2022/07/26 08:01:39;;;;;;;;;;;;;;;23.14;52.63;101460.22;5030978;28;19924;-91
2022/07/26 08:04:04;;;;;;;;;;;;;;;23.21;53.20;101463.25;5026551;28;19928;-90
2022/07/26 08:06:29;;;;;;;;;;;;;;;23.54;52.50;101462.25;5029527;28;20332;-90
2022/07/26 08:08:55;;;;;;;;;;;;;;;24.00;51.89;101461.91;5024111;28;20187;-91
2022/07/26 08:11:20;;;;;;;;;;;;;;;24.13;51.06;101470.63;5029211;28;20028;-91
2022/07/26 08:13:45;;;;;;;;;;;;;;;23.76;51.50;101472.97;5026139;28;19917;-91
2022/07/26 08:16:10;;;;;;;;;;;;;;;23.30;52.28;101487.63;5028577;28;19994;-91
2022/07/26 08:18:35;;;;;;;;;;;;;;;22.82;53.89;101482.59;5031432;28;19917;-91
2022/07/26 08:21:02;;;;;;;;;;;;;;;22.44;55.48;101485.69;5030234;28;20399;-91
2022/07/26 08:23:27;;;;;;;;;;;;;;;22.16;56.32;101489.72;5028115;28;19971;-92
2022/07/26 08:25:52;;;;;;;;;;;;;;;21.99;56.37;101504.47;5028925;28;19952;-92
2022/07/26 08:28:17;;;;;;;;;;;;;;;21.91;56.48;101494.28;5012333;28;20318;-91
2022/07/26 08:30:43;;;;;;;;;;;;;;;22.02;56.88;101511.44;5023602;28;20486;-91
2022/07/26 08:33:08;;;;;;;;;;;;;;;22.36;55.56;101505.16;5028873;28;19913;-93
2022/07/26 08:35:33;;;;;;;;;;;;;;;22.44;55.00;101506.41;5028512;28;19917;-92
2022/07/26 08:37:58;;;;;;;;;;;;;;;22.42;54.75;101504.66;5011444;28;19917;-93
2022/07/26 08:40:23;;;;;;;;;;;;;;;22.47;55.34;101511.50;5010574;28;19921;-92
2022/07/26 08:42:49;;;;;;;;;;;;;;;23.13;54.67;101515.19;5029098;28;19940;-91
2022/07/26 08:45:19;;;;;;;;;;;;;;;24.55;52.05;101515.69;5025304;28;20288;-91
2022/07/26 08:47:45;;;;;;;;;;;;;;;25.43;49.10;101513.06;5027678;28;20423;-90
2022/07/26 08:50:10;;;;;;;;;;;;;;;25.23;49.62;101514.06;5028033;28;19921;-92
2022/07/26 08:52:37;;;;;;;;;;;;;;;24.85;50.48;101520.19;5025788;28;19925;-92
2022/07/26 08:55:02;;;;;;;;;;;;;;;24.51;51.11;101525.91;5029886;28;20003;-92
2022/07/26 08:57:27;;;;;;;;;;;;;;;24.17;51.81;101526.13;5026767;28;20000;-93
2022/07/26 09:00:11;;;;;;;;;;;;;;;24.13;51.63;101537.34;5027652;28;19917;-92
2022/07/26 09:02:40;;;;;;;;;;;;;;;24.35;51.67;101529.06;5012119;28;19924;-92
2022/07/26 09:05:06;;;;;;;;;;;;;;;26.00;48.67;101524.03;5010889;28;19917;-91
2022/07/26 09:07:32;;;;;;;;;;;;;;;27.35;45.20;101528.06;5030188;28;20346;-91
2022/07/26 09:10:02;;;;;;;;;;;;;;;27.29;45.58;101534.13;5011049;28;19929;-91
2022/07/26 09:12:29;;;;;;;;;;;;;;;26.39;46.86;101542.91;5007581;28;19917;-91
2022/07/26 09:14:55;;;;;;;;;;;;;;;25.79;47.09;101535.06;5023639;28;20392;-91
2022/07/26 09:17:21;;;;;;;;;;;;;;;25.66;48.46;101540.72;5021435;28;19913;-90
2022/07/26 09:20:02;;;;;;;;;;;;;;;26.49;45.20;101540.19;5008614;28;19921;-90
2022/07/26 09:22:28;;;;;;;;;;;;;;;25.99;46.29;101545.88;5023536;28;19924;-91
2022/07/26 09:24:53;;;;;;;;;;;;;;;26.12;47.00;101544.56;5021881;28;19921;-91
2022/07/26 09:27:18;;;;;;;;;;;;;;;26.08;47.06;101550.44;5029368;28;20258;-91
2022/07/26 09:29:45;;;;;;;;;;;;;;;25.77;46.88;101549.72;5026946;28;19923;-91
2022/07/26 09:32:11;;;;;;;;;;;;;;;25.43;47.76;101553.69;5027348;28;19948;-91
2022/07/26 09:34:37;;;;;;;;;;;;;;;25.30;47.66;101555.78;5015220;28;19924;-92
2022/07/26 09:37:03;;;;;;;;;;;;;;;25.20;48.03;101557.63;5023546;28;19917;-91
2022/07/26 09:39:28;;;;;;;;;;;;;;;25.02;47.36;101559.25;5022925;28;19929;-92
2022/07/26 09:41:53;;;;;;;;;;;;;;;24.94;48.62;101557.25;5027090;28;20016;-90
2022/07/26 09:44:20;;;;;;;;;;;;;;;25.47;48.10;101559.69;5027024;28;19917;-90
2022/07/26 09:46:52;;;;;;;;;;;;;;;26.13;47.10;101562.53;5004694;28;19932;-90
2022/07/26 09:49:19;;;;;;;;;;;;;;;26.54;45.54;101563.19;5025688;28;19943;-91
2022/07/26 09:51:45;;;;;;;;;;;;;;;26.54;45.64;101559.63;5012625;28;19921;-91
2022/07/26 09:54:15;;;;;;;;;;;;;;;26.44;45.64;101565.09;5017643;28;19917;-90
2022/07/26 09:56:43;;;;;;;;;;;;;;;26.27;45.49;101569.34;5005632;28;20369;-91
2022/07/26 09:59:08;;;;;;;;;;;;;;;26.13;46.71;101575.25;5024946;28;20566;-93
2022/07/26 10:01:33;;;;;;;;;;;;;;;25.98;46.75;101582.97;5021951;28;19917;-91
2022/07/26 10:03:59;;;;;;;;;;;;;;;25.92;46.67;101578.09;5019607;28;19924;-90
2022/07/26 10:06:24;;;;;;;;;;;;;;;25.96;46.04;101571.38;5024352;28;19920;-90
2022/07/26 10:08:50;;;;;;;;;;;;;;;26.46;45.58;101579.34;5018440;28;19917;-90
2022/07/26 10:11:16;;;;;;;;;;;;;;;26.64;43.98;101584.84;5027303;28;19929;-90
2022/07/26 10:13:41;;;;;;;;;;;;;;;26.66;45.36;101577.41;5008197;28;19920;-90
2022/07/26 10:16:26;;;;;;;;;;;;;;;26.94;45.40;101578.28;5024040;28;19928;-90
2022/07/26 10:18:52;;;;;;;;;;;;;;;26.95;43.49;101580.88;5023162;28;19921;-90
2022/07/26 10:21:18;;;;;;;;;;;;;;;26.74;43.40;101582.09;5024884;28;20287;-90
2022/07/26 10:23:44;;;;;;;;;;;;;;;26.69;44.94;101583.41;5022195;28;20335;-90
2022/07/26 10:26:11;;;;;;;;;;;;;;;26.46;45.62;101582.03;5020617;28;20469;-89
2022/07/26 10:28:37;;;;;;;;;;;;;;;26.74;44.29;101588.38;5027925;28;20011;-90
2022/07/26 10:31:21;;;;;;;;;;;;;;;27.20;44.60;101587.47;5024841;28;19929;-90
2022/07/26 10:33:47;;;;;;;;;;;;;;;27.30;43.06;101595.56;5002244;28;20369;-91
2022/07/26 10:36:23;;;;;;;;;;;;;;;27.04;41.82;101589.94;5021761;28;20402;-90
2022/07/26 10:39:03;;;;;;;;;;;;;;;26.81;41.93;101603.03;5020131;28;19917;-90
2022/07/26 10:41:33;;;;;;;;;;;;;;;26.76;42.51;101597.22;5020534;28;19926;-90
2022/07/26 10:44:14;;;;;;;;;;;;;;;26.68;44.36;101602.53;5019055;28;20254;-91
2022/07/26 10:46:59;;;;;;;;;;;;;;;26.40;44.35;101602.44;5011147;28;19913;-90
2022/07/26 10:49:31;;;;;;;;;;;;;;;26.09;44.39;101609.91;5021511;28;20288;-92
2022/07/26 10:52:04;;;;;;;;;;;;;;;25.84;44.27;101603.22;5026562;28;20376;-92
2022/07/26 10:54:30;;;;;;;;;;;;;;;25.74;43.43;101598.72;5029529;28;20401;-92
2022/07/26 10:56:56;;;;;;;;;;;;;;;25.61;42.83;101616.13;5024043;28;19930;-91
2022/07/26 10:59:33;;;;;;;;;;;;;;;25.67;43.49;101612.84;5023181;28;19975;-91
2022/07/26 11:01:58;;;;;;;;;;;;;;;25.57;43.02;101622.81;5012046;28;19968;-90
2022/07/26 11:04:24;;;;;;;;;;;;;;;25.38;44.18;101618.22;5026899;28;19964;-90
2022/07/26 11:06:50;;;;;;;;;;;;;;;25.28;44.51;101625.47;5026851;28;20213;-90
2022/07/26 11:09:17;;;;;;;;;;;;;;;25.26;44.44;101624.75;5010677;28;19917;-91
2022/07/26 11:11:42;;;;;;;;;;;;;;;25.37;44.58;101626.50;5024302;28;19929;-90
2022/07/26 11:14:09;;;;;;;;;;;;;;;25.41;44.11;101626.09;5030717;28;19924;-90
2022/07/26 11:16:45;;;;;;;;;;;;;;;25.41;44.34;101634.19;5018908;28;20299;-91
2022/07/26 11:19:21;;;;;;;;;;;;;;;25.34;44.38;101627.63;5030670;28;19917;-90
2022/07/26 11:21:51;;;;;;;;;;;;;;;25.35;44.26;101629.31;5014017;28;20400;-90
2022/07/26 11:24:17;;;;;;;;;;;;;;;25.36;44.61;101638.28;5029862;28;19913;-89
2022/07/26 11:26:43;;;;;;;;;;;;;;;25.18;45.32;101633.56;5028138;28;20271;-90
2022/07/26 11:29:08;;;;;;;;;;;;;;;24.85;46.88;101648.16;5030506;28;19926;-90
2022/07/26 11:31:33;;;;;;;;;;;;;;;24.65;47.42;101654.47;5029859;28;19925;-90
2022/07/26 11:33:58;;;;;;;;;;;;;;;24.53;47.38;101658.22;5027371;28;20004;-91
2022/07/26 11:36:38;;;;;;;;;;;;;;;24.40;47.48;101658.44;5023680;28;19956;-90
2022/07/26 11:39:04;;;;;;;;;;;;;;;24.30;49.18;101658.34;5027780;28;19940;-90
2022/07/26 11:41:30;;;;;;;;;;;;;;;24.40;49.66;101663.84;5026290;28;19929;-90
2022/07/26 11:43:56;;;;;;;;;;;;;;;24.43;49.58;101666.28;5030650;28;20442;-90
2022/07/26 11:46:22;;;;;;;;;;;;;;;24.32;48.68;101664.47;5019102;28;20007;-90
2022/07/26 11:48:48;;;;;;;;;;;;;;;24.20;49.57;101665.50;5026078;28;19921;-90
2022/07/26 11:51:13;;;;;;;;;;;;;;;24.25;50.23;101667.81;5030524;28;20419;-90
2022/07/26 11:53:38;;;;;;;;;;;;;;;24.34;51.27;101667.03;5014533;28;19917;-90
2022/07/26 11:56:10;;;;;;;;;;;;;;;24.38;49.70;101674.78;5030639;28;19963;-90
2022/07/26 11:58:37;;;;;;;;;;;;;;;24.52;49.58;101665.50;5012160;28;20327;-90
2022/07/26 12:01:03;;;;;;;;;;;;;;;24.70;48.92;101671.16;5022847;28;20439;-91
2022/07/26 12:03:28;;;;;;;;;;;;;;;24.86;48.00;101666.13;5025406;28;20025;-90
2022/07/26 12:06:00;;;;;;;;;;;;;;;24.68;49.62;101660.47;5036440;28;20060;-90
2022/07/26 12:08:36;;;;;;;;;;;;;;;24.81;48.32;101667.53;5043276;28;19992;-90
2022/07/26 12:11:02;;;;;;;;;;;;;;;24.91;48.26;101658.47;5040061;28;19929;-90
2022/07/26 12:13:27;;;;;;;;;;;;;;;25.10;47.60;101662.28;5045131;28;19913;-88
2022/07/26 12:15:52;;;;;;;;;;;;;;;25.41;47.29;101660.38;5035327;28;20054;-90
2022/07/26 12:18:22;;;;;;;;;;;;;;;25.54;46.68;101661.00;5012937;28;19917;-90
2022/07/26 12:20:57;;;;;;;;;;;;;;;25.71;46.33;101654.06;5027289;28;19998;-90
2022/07/26 12:23:23;;;;;;;;;;;;;;;25.95;46.10;101662.66;5012020;28;19917;-91
2022/07/26 12:25:48;;;;;;;;;;;;;;;25.97;45.50;101661.66;5024759;28;19918;-90
2022/07/26 12:28:13;;;;;;;;;;;;;;;26.08;45.54;101658.84;5024800;28;20031;-91
2022/07/26 12:30:38;;;;;;;;;;;;;;;26.11;45.39;101656.69;5026520;28;19921;-90